sensor_id;sensor_type;location;lat;lon;timestamp;temperature;humidity
6429;DHT22;3247;48.946;10.220;2023-07-09T00:01:17;17.20;99.90
6429;DHT22;3247;48.946;10.220;2023-07-09T00:03:43;17.10;99.90
6429;DHT22;3247;48.946;10.220;2023-07-09T00:06:09;17.00;99.90
6429;DHT22;3247;48.946;10.220;2023-07-09T00:08:35;16.90;99.90
6429;DHT22;3247;48.946;10.220;2023-07-09T00:11:00;16.80;99.90
6429;DHT22;3247;48.946;10.220;2023-07-09T00:13:26;16.80;99.90
6429;DHT22;3247;48.946;10.220;2023-07-09T00:16:00;16.70;99.90
6429;DHT22;3247;48.946;10.220;2023-07-09T00:18:26;16.70;99.90
6429;DHT22;3247;48.946;10.220;2023-07-09T00:20:51;16.60;99.90
6429;DHT22;3247;48.946;10.220;2023-07-09T00:23:17;16.50;99.90
6429;DHT22;3247;48.946;10.220;2023-07-09T00:25:45;16.50;99.90
6429;DHT22;3247;48.946;10.220;2023-07-09T00:28:14;16.50;99.90
6429;DHT22;3247;48.946;10.220;2023-07-09T00:30:40;16.50;99.90
6429;DHT22;3247;48.946;10.220;2023-07-09T00:33:07;16.50;99.90
6429;DHT22;3247;48.946;10.220;2023-07-09T00:35:35;16.40;99.90
6429;DHT22;3247;48.946;10.220;2023-07-09T00:38:00;16.40;99.90
6429;DHT22;3247;48.946;10.220;2023-07-09T00:40:25;16.40;99.90
6429;DHT22;3247;48.946;10.220;2023-07-09T00:42:53;16.40;99.90
6429;DHT22;3247;48.946;10.220;2023-07-09T00:45:20;16.30;99.90
6429;DHT22;3247;48.946;10.220;2023-07-09T00:47:53;16.30;99.90
6429;DHT22;3247;48.946;10.220;2023-07-09T00:50:31;16.10;99.90
6429;DHT22;3247;48.946;10.220;2023-07-09T00:52:59;16.00;99.90
6429;DHT22;3247;48.946;10.220;2023-07-09T00:55:31;15.80;99.90
6429;DHT22;3247;48.946;10.220;2023-07-09T00:57:59;15.70;99.90
6429;DHT22;3247;48.946;10.220;2023-07-09T01:00:28;15.60;99.90
6429;DHT22;3247;48.946;10.220;2023-07-09T01:02:56;15.40;99.90
6429;DHT22;3247;48.946;10.220;2023-07-09T01:05:23;15.50;99.90
6429;DHT22;3247;48.946;10.220;2023-07-09T01:07:49;15.50;99.90
6429;DHT22;3247;48.946;10.220;2023-07-09T01:10:15;15.50;99.90
6429;DHT22;3247;48.946;10.220;2023-07-09T01:12:42;15.60;99.90
6429;DHT22;3247;48.946;10.220;2023-07-09T01:15:08;15.60;99.90
6429;DHT22;3247;48.946;10.220;2023-07-09T01:17:41;15.60;99.90
6429;DHT22;3247;48.946;10.220;2023-07-09T01:20:14;15.50;99.90
6429;DHT22;3247;48.946;10.220;2023-07-09T01:22:39;15.40;99.90
6429;DHT22;3247;48.946;10.220;2023-07-09T01:25:05;15.40;99.90
6429;DHT22;3247;48.946;10.220;2023-07-09T01:27:41;15.40;99.90
6429;DHT22;3247;48.946;10.220;2023-07-09T01:30:09;15.40;99.90
6429;DHT22;3247;48.946;10.220;2023-07-09T01:32:36;15.40;99.90
6429;DHT22;3247;48.946;10.220;2023-07-09T01:35:02;15.50;99.90
6429;DHT22;3247;48.946;10.220;2023-07-09T01:37:33;15.50;99.90
6429;DHT22;3247;48.946;10.220;2023-07-09T01:39:59;15.50;99.90
6429;DHT22;3247;48.946;10.220;2023-07-09T01:42:25;15.40;99.90
6429;DHT22;3247;48.946;10.220;2023-07-09T01:44:51;15.30;99.90
6429;DHT22;3247;48.946;10.220;2023-07-09T01:47:17;15.40;99.90
6429;DHT22;3247;48.946;10.220;2023-07-09T01:49:43;15.30;99.90
6429;DHT22;3247;48.946;10.220;2023-07-09T01:52:11;15.40;99.90
6429;DHT22;3247;48.946;10.220;2023-07-09T01:54:37;15.40;99.90
6429;DHT22;3247;48.946;10.220;2023-07-09T01:57:16;15.30;99.90
6429;DHT22;3247;48.946;10.220;2023-07-09T01:59:45;15.20;99.90
6429;DHT22;3247;48.946;10.220;2023-07-09T02:02:10;15.20;99.90
6429;DHT22;3247;48.946;10.220;2023-07-09T02:04:50;15.30;99.90
6429;DHT22;3247;48.946;10.220;2023-07-09T02:07:17;15.20;99.90
6429;DHT22;3247;48.946;10.220;2023-07-09T02:09:42;15.20;99.90
6429;DHT22;3247;48.946;10.220;2023-07-09T02:12:08;15.10;99.90
6429;DHT22;3247;48.946;10.220;2023-07-09T02:14:34;15.10;99.90
6429;DHT22;3247;48.946;10.220;2023-07-09T02:17:03;15.10;99.90
6429;DHT22;3247;48.946;10.220;2023-07-09T02:19:29;15.10;99.90
6429;DHT22;3247;48.946;10.220;2023-07-09T02:21:55;15.00;99.90
6429;DHT22;3247;48.946;10.220;2023-07-09T02:24:21;14.90;99.90
6429;DHT22;3247;48.946;10.220;2023-07-09T02:26:50;14.90;99.90
6429;DHT22;3247;48.946;10.220;2023-07-09T02:29:15;14.80;99.90
6429;DHT22;3247;48.946;10.220;2023-07-09T02:31:43;14.80;99.90
6429;DHT22;3247;48.946;10.220;2023-07-09T02:34:08;14.70;99.90
6429;DHT22;3247;48.946;10.220;2023-07-09T02:36:34;15.30;99.90
6429;DHT22;3247;48.946;10.220;2023-07-09T02:38:59;14.70;99.90
6429;DHT22;3247;48.946;10.220;2023-07-09T02:41:25;14.70;99.90
6429;DHT22;3247;48.946;10.220;2023-07-09T02:43:50;14.70;99.90
6429;DHT22;3247;48.946;10.220;2023-07-09T02:46:16;14.70;99.90
6429;DHT22;3247;48.946;10.220;2023-07-09T02:48:41;14.70;99.90
6429;DHT22;3247;48.946;10.220;2023-07-09T02:51:06;14.70;99.90
6429;DHT22;3247;48.946;10.220;2023-07-09T02:53:32;14.70;99.90
6429;DHT22;3247;48.946;10.220;2023-07-09T02:55:57;14.60;99.90
6429;DHT22;3247;48.946;10.220;2023-07-09T02:58:23;14.60;99.90
6429;DHT22;3247;48.946;10.220;2023-07-09T03:00:49;14.60;99.90
6429;DHT22;3247;48.946;10.220;2023-07-09T03:03:17;14.70;99.90
6429;DHT22;3247;48.946;10.220;2023-07-09T03:05:44;14.70;99.90
6429;DHT22;3247;48.946;10.220;2023-07-09T03:08:09;14.70;99.90
6429;DHT22;3247;48.946;10.220;2023-07-09T03:10:35;14.80;99.90
6429;DHT22;3247;48.946;10.220;2023-07-09T03:13:00;14.70;99.90
6429;DHT22;3247;48.946;10.220;2023-07-09T03:15:25;14.70;99.90
6429;DHT22;3247;48.946;10.220;2023-07-09T03:17:54;14.70;99.90
6429;DHT22;3247;48.946;10.220;2023-07-09T03:20:19;14.70;99.90
6429;DHT22;3247;48.946;10.220;2023-07-09T03:22:45;14.70;99.90
6429;DHT22;3247;48.946;10.220;2023-07-09T03:25:10;14.70;99.90
6429;DHT22;3247;48.946;10.220;2023-07-09T03:27:36;14.60;99.90
6429;DHT22;3247;48.946;10.220;2023-07-09T03:30:01;14.60;99.90
6429;DHT22;3247;48.946;10.220;2023-07-09T03:32:27;14.60;99.90
6429;DHT22;3247;48.946;10.220;2023-07-09T03:34:52;14.60;99.90
6429;DHT22;3247;48.946;10.220;2023-07-09T03:37:18;14.60;99.90
6429;DHT22;3247;48.946;10.220;2023-07-09T03:39:46;14.60;99.90
6429;DHT22;3247;48.946;10.220;2023-07-09T03:42:12;14.50;99.90
6429;DHT22;3247;48.946;10.220;2023-07-09T03:44:37;14.40;99.90
6429;DHT22;3247;48.946;10.220;2023-07-09T03:47:03;14.40;99.90
6429;DHT22;3247;48.946;10.220;2023-07-09T03:49:28;14.30;99.90
6429;DHT22;3247;48.946;10.220;2023-07-09T03:51:54;14.20;99.90
6429;DHT22;3247;48.946;10.220;2023-07-09T03:54:19;14.10;99.90
6429;DHT22;3247;48.946;10.220;2023-07-09T03:56:45;14.20;99.90
6429;DHT22;3247;48.946;10.220;2023-07-09T03:59:10;14.30;99.90
6429;DHT22;3247;48.946;10.220;2023-07-09T04:01:36;14.40;99.90
6429;DHT22;3247;48.946;10.220;2023-07-09T04:04:01;14.50;99.90
6429;DHT22;3247;48.946;10.220;2023-07-09T04:06:28;14.50;99.90
6429;DHT22;3247;48.946;10.220;2023-07-09T04:08:53;14.60;99.90
6429;DHT22;3247;48.946;10.220;2023-07-09T04:11:19;14.60;99.90
6429;DHT22;3247;48.946;10.220;2023-07-09T04:13:44;14.50;99.90
6429;DHT22;3247;48.946;10.220;2023-07-09T04:16:10;14.90;99.90
6429;DHT22;3247;48.946;10.220;2023-07-09T04:18:36;15.20;99.90
6429;DHT22;3247;48.946;10.220;2023-07-09T04:21:01;15.60;99.90
6429;DHT22;3247;48.946;10.220;2023-07-09T04:23:27;16.00;99.90
6429;DHT22;3247;48.946;10.220;2023-07-09T04:25:52;16.40;99.90
6429;DHT22;3247;48.946;10.220;2023-07-09T04:28:18;17.20;99.90
6429;DHT22;3247;48.946;10.220;2023-07-09T04:30:50;17.90;99.90
6429;DHT22;3247;48.946;10.220;2023-07-09T04:33:16;18.30;99.90
6429;DHT22;3247;48.946;10.220;2023-07-09T04:35:45;19.00;99.90
6429;DHT22;3247;48.946;10.220;2023-07-09T04:38:11;19.50;99.90
6429;DHT22;3247;48.946;10.220;2023-07-09T04:40:37;19.70;99.90
6429;DHT22;3247;48.946;10.220;2023-07-09T04:43:02;19.80;99.90
6429;DHT22;3247;48.946;10.220;2023-07-09T04:45:27;19.90;99.90
6429;DHT22;3247;48.946;10.220;2023-07-09T04:47:58;20.40;99.90
6429;DHT22;3247;48.946;10.220;2023-07-09T04:50:23;21.00;99.90
6429;DHT22;3247;48.946;10.220;2023-07-09T04:52:49;21.90;99.90
6429;DHT22;3247;48.946;10.220;2023-07-09T04:55:14;22.00;99.90
6429;DHT22;3247;48.946;10.220;2023-07-09T04:57:40;22.30;99.90
6429;DHT22;3247;48.946;10.220;2023-07-09T05:00:05;23.00;99.90
6429;DHT22;3247;48.946;10.220;2023-07-09T05:02:31;23.70;99.90
6429;DHT22;3247;48.946;10.220;2023-07-09T05:04:57;23.80;99.90
6429;DHT22;3247;48.946;10.220;2023-07-09T05:07:22;23.50;99.90
6429;DHT22;3247;48.946;10.220;2023-07-09T05:09:48;23.80;99.90
6429;DHT22;3247;48.946;10.220;2023-07-09T05:12:13;24.10;99.90
6429;DHT22;3247;48.946;10.220;2023-07-09T05:14:39;24.10;99.90
6429;DHT22;3247;48.946;10.220;2023-07-09T05:17:05;25.10;99.90
6429;DHT22;3247;48.946;10.220;2023-07-09T05:19:30;24.60;99.90
6429;DHT22;3247;48.946;10.220;2023-07-09T05:21:56;24.80;99.90
6429;DHT22;3247;48.946;10.220;2023-07-09T05:24:21;25.90;99.90
6429;DHT22;3247;48.946;10.220;2023-07-09T05:26:47;25.90;99.90
6429;DHT22;3247;48.946;10.220;2023-07-09T05:29:12;26.70;99.90
6429;DHT22;3247;48.946;10.220;2023-07-09T05:31:38;26.80;99.90
6429;DHT22;3247;48.946;10.220;2023-07-09T05:34:04;27.80;99.90
6429;DHT22;3247;48.946;10.220;2023-07-09T05:36:29;27.10;99.90
6429;DHT22;3247;48.946;10.220;2023-07-09T05:38:55;27.90;99.90
6429;DHT22;3247;48.946;10.220;2023-07-09T05:41:21;28.40;99.90
6429;DHT22;3247;48.946;10.220;2023-07-09T05:43:46;28.20;99.90
6429;DHT22;3247;48.946;10.220;2023-07-09T05:46:17;28.70;99.90
6429;DHT22;3247;48.946;10.220;2023-07-09T05:48:42;29.50;99.90
6429;DHT22;3247;48.946;10.220;2023-07-09T05:51:08;29.30;99.90
6429;DHT22;3247;48.946;10.220;2023-07-09T05:53:33;29.00;99.90
6429;DHT22;3247;48.946;10.220;2023-07-09T05:55:59;30.40;99.90
6429;DHT22;3247;48.946;10.220;2023-07-09T05:58:25;30.90;99.90
6429;DHT22;3247;48.946;10.220;2023-07-09T06:00:50;31.10;99.90
6429;DHT22;3247;48.946;10.220;2023-07-09T06:03:19;31.80;99.90
6429;DHT22;3247;48.946;10.220;2023-07-09T06:05:44;32.20;99.50
6429;DHT22;3247;48.946;10.220;2023-07-09T06:08:10;32.90;97.50
6429;DHT22;3247;48.946;10.220;2023-07-09T06:10:38;32.70;97.20
6429;DHT22;3247;48.946;10.220;2023-07-09T06:13:03;32.00;99.10
6429;DHT22;3247;48.946;10.220;2023-07-09T06:15:28;32.20;99.20
6429;DHT22;3247;48.946;10.220;2023-07-09T06:17:54;33.60;99.60
6429;DHT22;3247;48.946;10.220;2023-07-09T06:20:19;33.80;97.30
6429;DHT22;3247;48.946;10.220;2023-07-09T06:22:45;34.20;97.30
6429;DHT22;3247;48.946;10.220;2023-07-09T06:25:10;35.00;95.00
6429;DHT22;3247;48.946;10.220;2023-07-09T06:27:36;34.50;93.80
6429;DHT22;3247;48.946;10.220;2023-07-09T06:30:01;36.00;93.70
6429;DHT22;3247;48.946;10.220;2023-07-09T06:32:26;35.70;91.80
6429;DHT22;3247;48.946;10.220;2023-07-09T06:34:52;36.00;92.40
6429;DHT22;3247;48.946;10.220;2023-07-09T06:37:17;36.10;91.00
6429;DHT22;3247;48.946;10.220;2023-07-09T06:39:43;36.20;90.20
6429;DHT22;3247;48.946;10.220;2023-07-09T06:42:08;36.90;87.80
6429;DHT22;3247;48.946;10.220;2023-07-09T06:44:34;37.50;84.00
6429;DHT22;3247;48.946;10.220;2023-07-09T06:46:59;37.60;83.00
6429;DHT22;3247;48.946;10.220;2023-07-09T06:49:25;38.30;80.90
6429;DHT22;3247;48.946;10.220;2023-07-09T06:51:50;37.90;80.80
6429;DHT22;3247;48.946;10.220;2023-07-09T06:54:15;38.40;80.10
6429;DHT22;3247;48.946;10.220;2023-07-09T06:56:41;38.50;78.50
6429;DHT22;3247;48.946;10.220;2023-07-09T06:59:06;39.10;77.50
6429;DHT22;3247;48.946;10.220;2023-07-09T07:01:32;38.80;78.90
6429;DHT22;3247;48.946;10.220;2023-07-09T07:03:57;39.60;76.00
6429;DHT22;3247;48.946;10.220;2023-07-09T07:06:23;39.30;74.90
6429;DHT22;3247;48.946;10.220;2023-07-09T07:08:48;39.90;71.90
6429;DHT22;3247;48.946;10.220;2023-07-09T07:11:14;39.10;73.90
6429;DHT22;3247;48.946;10.220;2023-07-09T07:13:40;38.60;74.70
6429;DHT22;3247;48.946;10.220;2023-07-09T07:16:09;39.30;72.60
6429;DHT22;3247;48.946;10.220;2023-07-09T07:18:35;39.80;71.90
6429;DHT22;3247;48.946;10.220;2023-07-09T07:21:01;40.00;70.30
6429;DHT22;3247;48.946;10.220;2023-07-09T07:23:26;41.00;66.30
6429;DHT22;3247;48.946;10.220;2023-07-09T07:25:52;41.40;66.10
6429;DHT22;3247;48.946;10.220;2023-07-09T07:28:18;40.90;65.90
6429;DHT22;3247;48.946;10.220;2023-07-09T07:30:43;40.30;67.20
6429;DHT22;3247;48.946;10.220;2023-07-09T07:33:09;40.30;65.30
6429;DHT22;3247;48.946;10.220;2023-07-09T07:35:34;40.80;65.80
6429;DHT22;3247;48.946;10.220;2023-07-09T07:38:00;40.40;64.70
6429;DHT22;3247;48.946;10.220;2023-07-09T07:40:25;40.80;62.60
6429;DHT22;3247;48.946;10.220;2023-07-09T07:42:50;40.90;60.90
6429;DHT22;3247;48.946;10.220;2023-07-09T07:45:16;41.40;59.50
6429;DHT22;3247;48.946;10.220;2023-07-09T07:47:42;42.40;57.30
6429;DHT22;3247;48.946;10.220;2023-07-09T07:50:07;42.10;55.90
6429;DHT22;3247;48.946;10.220;2023-07-09T07:52:33;42.90;55.90
6429;DHT22;3247;48.946;10.220;2023-07-09T07:55:06;42.50;58.10
6429;DHT22;3247;48.946;10.220;2023-07-09T07:57:31;42.00;57.50
6429;DHT22;3247;48.946;10.220;2023-07-09T07:59:57;41.50;59.10
6429;DHT22;3247;48.946;10.220;2023-07-09T08:02:23;42.30;57.90
6429;DHT22;3247;48.946;10.220;2023-07-09T08:04:49;42.10;56.20
6429;DHT22;3247;48.946;10.220;2023-07-09T08:07:16;42.70;55.90
6429;DHT22;3247;48.946;10.220;2023-07-09T08:09:41;42.40;56.30
6429;DHT22;3247;48.946;10.220;2023-07-09T08:12:07;42.30;56.00
6429;DHT22;3247;48.946;10.220;2023-07-09T08:14:38;42.40;55.00
6429;DHT22;3247;48.946;10.220;2023-07-09T08:17:03;42.60;54.90
6429;DHT22;3247;48.946;10.220;2023-07-09T08:19:30;41.80;55.80
6429;DHT22;3247;48.946;10.220;2023-07-09T08:21:55;41.70;54.50
6429;DHT22;3247;48.946;10.220;2023-07-09T08:24:20;41.80;55.30
6429;DHT22;3247;48.946;10.220;2023-07-09T08:26:46;41.40;55.20
6429;DHT22;3247;48.946;10.220;2023-07-09T08:29:11;41.30;55.40
6429;DHT22;3247;48.946;10.220;2023-07-09T08:31:37;41.60;55.50
6429;DHT22;3247;48.946;10.220;2023-07-09T08:34:04;41.90;55.20
6429;DHT22;3247;48.946;10.220;2023-07-09T08:36:31;41.20;56.20
6429;DHT22;3247;48.946;10.220;2023-07-09T08:38:56;40.70;57.00
6429;DHT22;3247;48.946;10.220;2023-07-09T08:41:28;40.70;57.10
6429;DHT22;3247;48.946;10.220;2023-07-09T08:48:52;39.70;55.70
6429;DHT22;3247;48.946;10.220;2023-07-09T08:56:13;39.30;56.80
6429;DHT22;3247;48.946;10.220;2023-07-09T08:58:39;39.20;55.00
6429;DHT22;3247;48.946;10.220;2023-07-09T09:01:05;39.80;55.70
6429;DHT22;3247;48.946;10.220;2023-07-09T09:05:57;39.50;55.40
6429;DHT22;3247;48.946;10.220;2023-07-09T09:08:46;39.20;54.20
6429;DHT22;3247;48.946;10.220;2023-07-09T09:11:37;39.30;53.70
6429;DHT22;3247;48.946;10.220;2023-07-09T09:13:59;39.80;54.10
6429;DHT22;3247;48.946;10.220;2023-07-09T09:16:33;38.30;54.50
6429;DHT22;3247;48.946;10.220;2023-07-09T09:19:00;38.30;56.00
6429;DHT22;3247;48.946;10.220;2023-07-09T09:21:33;38.90;55.20
6429;DHT22;3247;48.946;10.220;2023-07-09T09:24:03;39.00;55.40
6429;DHT22;3247;48.946;10.220;2023-07-09T09:26:35;38.60;54.50
6429;DHT22;3247;48.946;10.220;2023-07-09T09:29:07;39.10;54.60
6429;DHT22;3247;48.946;10.220;2023-07-09T09:31:35;39.20;53.90
6429;DHT22;3247;48.946;10.220;2023-07-09T09:34:00;39.40;54.20
6429;DHT22;3247;48.946;10.220;2023-07-09T09:36:26;39.30;54.90
6429;DHT22;3247;48.946;10.220;2023-07-09T09:38:52;39.20;54.50
6429;DHT22;3247;48.946;10.220;2023-07-09T09:41:19;39.50;53.70
6429;DHT22;3247;48.946;10.220;2023-07-09T09:43:45;39.20;52.40
6429;DHT22;3247;48.946;10.220;2023-07-09T09:46:22;38.90;53.50
6429;DHT22;3247;48.946;10.220;2023-07-09T09:48:53;38.30;53.30
6429;DHT22;3247;48.946;10.220;2023-07-09T09:51:19;38.40;54.60
6429;DHT22;3247;48.946;10.220;2023-07-09T09:53:48;38.40;55.30
6429;DHT22;3247;48.946;10.220;2023-07-09T09:56:24;38.10;53.30
6429;DHT22;3247;48.946;10.220;2023-07-09T09:58:53;38.20;55.60
6429;DHT22;3247;48.946;10.220;2023-07-09T10:01:20;38.30;55.70
6429;DHT22;3247;48.946;10.220;2023-07-09T10:03:47;38.30;54.20
6429;DHT22;3247;48.946;10.220;2023-07-09T10:06:21;37.70;53.60
6429;DHT22;3247;48.946;10.220;2023-07-09T10:09:12;37.80;53.30
6429;DHT22;3247;48.946;10.220;2023-07-09T10:11:46;38.10;54.10
6429;DHT22;3247;48.946;10.220;2023-07-09T10:14:58;38.30;54.80
6429;DHT22;3247;48.946;10.220;2023-07-09T10:17:04;38.30;53.00
6429;DHT22;3247;48.946;10.220;2023-07-09T10:19:35;37.70;55.10
6429;DHT22;3247;48.946;10.220;2023-07-09T10:22:07;37.40;55.50
6429;DHT22;3247;48.946;10.220;2023-07-09T10:24:44;37.50;55.20
6429;DHT22;3247;48.946;10.220;2023-07-09T10:27:15;37.40;53.90
6429;DHT22;3247;48.946;10.220;2023-07-09T10:32:20;37.90;54.10
6429;DHT22;3247;48.946;10.220;2023-07-09T10:35:04;37.90;53.70
6429;DHT22;3247;48.946;10.220;2023-07-09T10:39:58;35.80;56.10
6429;DHT22;3247;48.946;10.220;2023-07-09T10:42:32;35.90;56.40
6429;DHT22;3247;48.946;10.220;2023-07-09T10:45:20;35.50;56.90
6429;DHT22;3247;48.946;10.220;2023-07-09T10:47:57;35.40;56.70
6429;DHT22;3247;48.946;10.220;2023-07-09T10:50:27;35.20;57.40
6429;DHT22;3247;48.946;10.220;2023-07-09T10:52:54;35.30;56.30
6429;DHT22;3247;48.946;10.220;2023-07-09T10:55:32;35.30;56.90
6429;DHT22;3247;48.946;10.220;2023-07-09T10:57:59;35.60;55.10
6429;DHT22;3247;48.946;10.220;2023-07-09T11:00:59;35.90;55.60
6429;DHT22;3247;48.946;10.220;2023-07-09T11:03:19;36.30;55.60
6429;DHT22;3247;48.946;10.220;2023-07-09T11:05:46;36.70;56.10
6429;DHT22;3247;48.946;10.220;2023-07-09T11:08:34;36.80;55.00
6429;DHT22;3247;48.946;10.220;2023-07-09T11:11:01;36.70;54.30
6429;DHT22;3247;48.946;10.220;2023-07-09T11:13:32;36.70;54.80
6429;DHT22;3247;48.946;10.220;2023-07-09T11:16:04;36.90;56.70
6429;DHT22;3247;48.946;10.220;2023-07-09T11:18:31;37.30;54.90
6429;DHT22;3247;48.946;10.220;2023-07-09T11:21:03;37.20;54.50
6429;DHT22;3247;48.946;10.220;2023-07-09T11:26:28;37.00;55.50
6429;DHT22;3247;48.946;10.220;2023-07-09T11:28:55;37.40;56.50
6429;DHT22;3247;48.946;10.220;2023-07-09T11:31:25;37.70;55.10
6429;DHT22;3247;48.946;10.220;2023-07-09T11:34:01;37.50;54.10
6429;DHT22;3247;48.946;10.220;2023-07-09T11:36:27;37.50;53.90
6429;DHT22;3247;48.946;10.220;2023-07-09T11:38:53;37.00;53.00
6429;DHT22;3247;48.946;10.220;2023-07-09T11:41:26;36.60;54.30
6429;DHT22;3247;48.946;10.220;2023-07-09T11:43:52;36.20;54.90
6429;DHT22;3247;48.946;10.220;2023-07-09T11:46:19;36.40;57.20
6429;DHT22;3247;48.946;10.220;2023-07-09T11:48:46;36.70;54.80
6429;DHT22;3247;48.946;10.220;2023-07-09T11:51:23;36.80;55.50
6429;DHT22;3247;48.946;10.220;2023-07-09T11:53:52;36.90;55.60
6429;DHT22;3247;48.946;10.220;2023-07-09T11:56:19;37.10;54.40
6429;DHT22;3247;48.946;10.220;2023-07-09T11:58:48;37.20;53.70
6429;DHT22;3247;48.946;10.220;2023-07-09T12:01:15;37.00;54.50
6429;DHT22;3247;48.946;10.220;2023-07-09T12:03:42;36.70;55.10
6429;DHT22;3247;48.946;10.220;2023-07-09T12:06:21;36.00;55.40
6429;DHT22;3247;48.946;10.220;2023-07-09T12:08:48;35.70;57.00
6429;DHT22;3247;48.946;10.220;2023-07-09T12:13:45;35.40;56.60
6429;DHT22;3247;48.946;10.220;2023-07-09T12:16:20;35.50;55.10
6429;DHT22;3247;48.946;10.220;2023-07-09T12:18:46;35.80;56.00
6429;DHT22;3247;48.946;10.220;2023-07-09T12:21:12;35.70;55.70
6429;DHT22;3247;48.946;10.220;2023-07-09T12:23:39;36.20;55.20
6429;DHT22;3247;48.946;10.220;2023-07-09T12:26:05;36.20;56.60
6429;DHT22;3247;48.946;10.220;2023-07-09T12:28:31;36.00;54.30
6429;DHT22;3247;48.946;10.220;2023-07-09T12:30:57;36.40;56.40
6429;DHT22;3247;48.946;10.220;2023-07-09T12:33:26;36.40;54.90
6429;DHT22;3247;48.946;10.220;2023-07-09T12:35:55;35.90;55.60
6429;DHT22;3247;48.946;10.220;2023-07-09T12:38:23;35.50;55.80
6429;DHT22;3247;48.946;10.220;2023-07-09T12:40:50;35.10;57.30
6429;DHT22;3247;48.946;10.220;2023-07-09T12:43:17;35.10;55.60
6429;DHT22;3247;48.946;10.220;2023-07-09T12:45:44;34.50;56.20
6429;DHT22;3247;48.946;10.220;2023-07-09T12:48:10;34.20;57.80
6429;DHT22;3247;48.946;10.220;2023-07-09T12:50:37;34.00;58.50
6429;DHT22;3247;48.946;10.220;2023-07-09T12:53:24;33.80;56.60
6429;DHT22;3247;48.946;10.220;2023-07-09T12:55:48;33.70;58.20
6429;DHT22;3247;48.946;10.220;2023-07-09T13:00:50;33.70;60.40
6429;DHT22;3247;48.946;10.220;2023-07-09T13:03:21;34.00;59.10
6429;DHT22;3247;48.946;10.220;2023-07-09T13:05:56;34.10;58.60
6429;DHT22;3247;48.946;10.220;2023-07-09T13:08:23;34.00;60.00
6429;DHT22;3247;48.946;10.220;2023-07-09T13:10:49;34.30;58.80
6429;DHT22;3247;48.946;10.220;2023-07-09T13:13:18;34.60;59.90
6429;DHT22;3247;48.946;10.220;2023-07-09T13:15:43;35.10;57.10
6429;DHT22;3247;48.946;10.220;2023-07-09T13:18:11;35.30;57.60
6429;DHT22;3247;48.946;10.220;2023-07-09T13:20:38;35.40;58.20
6429;DHT22;3247;48.946;10.220;2023-07-09T13:23:08;35.40;57.10
6429;DHT22;3247;48.946;10.220;2023-07-09T13:25:34;35.70;56.70
6429;DHT22;3247;48.946;10.220;2023-07-09T13:28:00;35.90;55.40
6429;DHT22;3247;48.946;10.220;2023-07-09T13:30:26;35.70;55.70
6429;DHT22;3247;48.946;10.220;2023-07-09T13:32:51;35.60;56.20
6429;DHT22;3247;48.946;10.220;2023-07-09T13:35:17;35.60;56.10
6429;DHT22;3247;48.946;10.220;2023-07-09T13:37:44;36.00;55.80
6429;DHT22;3247;48.946;10.220;2023-07-09T13:40:10;36.00;55.40
6429;DHT22;3247;48.946;10.220;2023-07-09T13:42:36;35.90;56.30
6429;DHT22;3247;48.946;10.220;2023-07-09T13:45:02;35.90;56.30
6429;DHT22;3247;48.946;10.220;2023-07-09T13:47:27;35.80;55.80
6429;DHT22;3247;48.946;10.220;2023-07-09T13:49:53;35.80;55.30
6429;DHT22;3247;48.946;10.220;2023-07-09T13:52:19;35.70;55.30
6429;DHT22;3247;48.946;10.220;2023-07-09T13:54:45;35.60;55.00
6429;DHT22;3247;48.946;10.220;2023-07-09T13:57:14;35.80;56.70
6429;DHT22;3247;48.946;10.220;2023-07-09T13:59:40;35.80;55.00
6429;DHT22;3247;48.946;10.220;2023-07-09T14:04:40;35.40;54.70
6429;DHT22;3247;48.946;10.220;2023-07-09T14:07:07;35.30;54.60
6429;DHT22;3247;48.946;10.220;2023-07-09T14:09:33;35.50;55.90
6429;DHT22;3247;48.946;10.220;2023-07-09T14:11:59;35.40;55.60
6429;DHT22;3247;48.946;10.220;2023-07-09T14:14:27;35.50;55.20
6429;DHT22;3247;48.946;10.220;2023-07-09T14:17:00;35.70;55.60
6429;DHT22;3247;48.946;10.220;2023-07-09T14:19:26;35.80;55.70
6429;DHT22;3247;48.946;10.220;2023-07-09T14:21:51;35.90;55.50
6429;DHT22;3247;48.946;10.220;2023-07-09T14:24:22;35.80;55.10
6429;DHT22;3247;48.946;10.220;2023-07-09T14:26:48;36.10;54.60
6429;DHT22;3247;48.946;10.220;2023-07-09T14:29:13;36.10;54.10
6429;DHT22;3247;48.946;10.220;2023-07-09T14:31:40;36.00;54.00
6429;DHT22;3247;48.946;10.220;2023-07-09T14:34:22;36.10;53.90
6429;DHT22;3247;48.946;10.220;2023-07-09T14:36:48;35.90;54.60
6429;DHT22;3247;48.946;10.220;2023-07-09T14:39:14;35.70;54.30
6429;DHT22;3247;48.946;10.220;2023-07-09T14:41:40;35.70;55.40
6429;DHT22;3247;48.946;10.220;2023-07-09T14:44:13;35.40;54.90
6429;DHT22;3247;48.946;10.220;2023-07-09T14:46:41;35.50;55.20
6429;DHT22;3247;48.946;10.220;2023-07-09T14:49:07;35.50;55.50
6429;DHT22;3247;48.946;10.220;2023-07-09T14:51:32;35.60;54.00
6429;DHT22;3247;48.946;10.220;2023-07-09T14:53:57;35.50;54.80
6429;DHT22;3247;48.946;10.220;2023-07-09T14:56:23;35.60;54.30
6429;DHT22;3247;48.946;10.220;2023-07-09T14:58:48;35.50;54.00
6429;DHT22;3247;48.946;10.220;2023-07-09T15:01:14;35.30;55.40
6429;DHT22;3247;48.946;10.220;2023-07-09T15:03:40;35.30;55.80
6429;DHT22;3247;48.946;10.220;2023-07-09T15:06:05;35.20;54.70
6429;DHT22;3247;48.946;10.220;2023-07-09T15:08:31;35.10;54.80
6429;DHT22;3247;48.946;10.220;2023-07-09T15:10:58;35.10;55.70
6429;DHT22;3247;48.946;10.220;2023-07-09T15:13:29;35.30;55.20
6429;DHT22;3247;48.946;10.220;2023-07-09T15:15:55;35.10;55.20
6429;DHT22;3247;48.946;10.220;2023-07-09T15:18:20;35.10;55.20
6429;DHT22;3247;48.946;10.220;2023-07-09T15:20:47;35.30;55.20
6429;DHT22;3247;48.946;10.220;2023-07-09T15:23:13;35.40;54.50
6429;DHT22;3247;48.946;10.220;2023-07-09T15:25:39;35.10;53.70
6429;DHT22;3247;48.946;10.220;2023-07-09T15:28:04;35.20;54.60
6429;DHT22;3247;48.946;10.220;2023-07-09T15:30:30;35.20;54.10
6429;DHT22;3247;48.946;10.220;2023-07-09T15:32:57;35.00;54.10
6429;DHT22;3247;48.946;10.220;2023-07-09T15:35:22;34.90;54.90
6429;DHT22;3247;48.946;10.220;2023-07-09T15:37:48;34.50;54.50
6429;DHT22;3247;48.946;10.220;2023-07-09T15:42:43;34.60;55.00
6429;DHT22;3247;48.946;10.220;2023-07-09T15:45:13;34.60;55.30
6429;DHT22;3247;48.946;10.220;2023-07-09T15:47:39;34.60;55.80
6429;DHT22;3247;48.946;10.220;2023-07-09T15:50:15;34.60;55.90
6429;DHT22;3247;48.946;10.220;2023-07-09T15:52:42;34.50;56.30
6429;DHT22;3247;48.946;10.220;2023-07-09T15:55:14;34.20;55.30
6429;DHT22;3247;48.946;10.220;2023-07-09T15:57:40;34.30;56.10
6429;DHT22;3247;48.946;10.220;2023-07-09T16:03:04;34.20;55.40
6429;DHT22;3247;48.946;10.220;2023-07-09T16:05:31;34.20;55.70
6429;DHT22;3247;48.946;10.220;2023-07-09T16:07:58;34.10;55.20
6429;DHT22;3247;48.946;10.220;2023-07-09T16:10:25;34.10;56.20
6429;DHT22;3247;48.946;10.220;2023-07-09T16:12:51;34.00;55.50
6429;DHT22;3247;48.946;10.220;2023-07-09T16:15:18;34.00;55.30
6429;DHT22;3247;48.946;10.220;2023-07-09T16:17:45;33.90;54.40
6429;DHT22;3247;48.946;10.220;2023-07-09T16:20:11;33.90;55.60